createdAt,value
2023-03-04T06:01:00.458Z,3.72
2023-03-04T06:03:30.337Z,3.70
2023-03-04T06:05:57.207Z,3.66
2023-03-04T06:08:24.403Z,3.65
2023-03-04T06:10:53.708Z,3.66
2023-03-04T06:13:24.602Z,3.65
2023-03-04T06:15:58.553Z,3.66
2023-03-04T06:18:27.665Z,3.63
2023-03-04T06:21:01.821Z,3.68
2023-03-04T06:23:31.822Z,3.64
2023-03-04T06:26:03.258Z,3.64
2023-03-04T06:28:33.439Z,3.63
2023-03-04T06:31:03.973Z,3.62
2023-03-04T06:33:37.849Z,3.60
2023-03-04T06:36:04.940Z,3.58
2023-03-04T06:38:35.551Z,3.64
2023-03-04T06:41:13.389Z,3.58
2023-03-04T06:43:45.597Z,3.55
2023-03-04T06:46:12.573Z,3.57
2023-03-04T06:48:42.206Z,3.55
2023-03-04T06:51:22.993Z,3.58
2023-03-04T06:53:53.609Z,3.61
2023-03-04T06:56:20.290Z,3.61
2023-03-04T06:58:50.838Z,3.58
2023-03-04T07:01:31.350Z,3.57
2023-03-04T07:03:58.900Z,3.60
2023-03-04T07:06:28.091Z,3.59
2023-03-04T07:08:55.534Z,3.65
2023-03-04T07:11:23.059Z,3.64
2023-03-04T07:13:50.314Z,3.64
2023-03-04T07:16:20.615Z,3.71
2023-03-04T07:18:48.607Z,3.74
2023-03-04T07:21:16.512Z,3.70
2023-03-04T07:23:43.683Z,3.71
2023-03-04T07:26:10.933Z,3.76
2023-03-04T07:28:38.078Z,3.81
2023-03-04T07:31:28.658Z,3.88
2023-03-04T07:34:06.636Z,3.93
2023-03-04T07:36:36.076Z,3.97
2023-03-04T07:39:03.680Z,4.01
2023-03-04T07:41:32.761Z,4.08
2023-03-04T07:43:59.498Z,4.07
2023-03-04T07:46:26.818Z,4.13
2023-03-04T07:48:55.449Z,4.15
2023-03-04T07:51:24.815Z,4.14
2023-03-04T07:53:53.753Z,4.16
2023-03-04T07:56:24.248Z,4.08
2023-03-04T07:58:54.682Z,4.13
2023-03-04T08:01:27.714Z,4.15
2023-03-04T08:03:54.606Z,4.12
2023-03-04T08:06:22.974Z,4.20
2023-03-04T08:08:50.200Z,4.21
2023-03-04T08:11:20.469Z,4.24
2023-03-04T08:13:48.156Z,4.26
2023-03-04T08:16:17.902Z,4.28
2023-03-04T08:18:47.347Z,4.29
2023-03-04T08:21:16.092Z,4.31
2023-03-04T08:23:43.279Z,4.36
2023-03-04T08:26:13.855Z,4.43
2023-03-04T08:28:41.272Z,4.42
2023-03-04T08:31:08.950Z,4.46
2023-03-04T08:33:35.884Z,4.37
2023-03-04T08:36:03.115Z,4.42
2023-03-04T08:38:29.633Z,4.43
2023-03-04T08:40:57.340Z,4.46
2023-03-04T08:43:25.494Z,4.46
2023-03-04T08:45:57.730Z,4.48
2023-03-04T08:48:24.956Z,4.49
2023-03-04T08:50:52.832Z,4.46
2023-03-04T08:53:20.425Z,4.49
2023-03-04T08:55:48.349Z,4.57
2023-03-04T08:58:16.411Z,4.57
2023-03-04T09:00:48.564Z,4.66
2023-03-04T09:03:16.416Z,4.59
2023-03-04T09:05:45.440Z,4.64
2023-03-04T09:08:12.474Z,4.55
2023-03-04T09:10:39.574Z,4.61
2023-03-04T09:13:07.270Z,4.64
2023-03-04T09:15:37.417Z,4.74
2023-03-04T09:18:06.471Z,4.79
2023-03-04T09:20:33.213Z,4.87
2023-03-04T09:23:00.595Z,4.92
2023-03-04T09:25:27.435Z,4.97
2023-03-04T09:27:54.848Z,5.01
2023-03-04T09:30:21.720Z,4.99
2023-03-04T09:32:48.945Z,4.96
2023-03-04T09:35:15.546Z,4.98
2023-03-04T09:37:42.749Z,5.01
2023-03-04T09:40:16.242Z,5.00
2023-03-04T09:42:52.085Z,4.93
2023-03-04T09:45:24.589Z,4.90
2023-03-04T09:47:54.798Z,4.94
2023-03-04T09:50:23.060Z,4.98
2023-03-04T09:52:59.038Z,5.03
2023-03-04T09:55:42.184Z,5.08
2023-03-04T09:58:27.479Z,5.14
2023-03-04T10:01:21.374Z,5.16
2023-03-04T10:03:58.805Z,5.16
2023-03-04T10:06:26.000Z,5.16
2023-03-04T10:08:52.539Z,5.16
2023-03-04T10:11:38.467Z,5.13
2023-03-04T10:14:11.206Z,5.14
2023-03-04T10:16:47.911Z,5.17
2023-03-04T10:19:14.362Z,5.22
2023-03-04T10:21:50.915Z,5.15
2023-03-04T10:24:25.173Z,5.22
2023-03-04T10:27:01.930Z,5.19
2023-03-04T10:29:31.882Z,5.24
2023-03-04T10:31:58.944Z,5.22
2023-03-04T10:34:37.317Z,5.28
2023-03-04T10:37:15.026Z,5.33
2023-03-04T10:39:44.954Z,5.34
2023-03-04T10:42:15.227Z,5.37
2023-03-04T10:44:44.890Z,5.40
2023-03-04T10:47:12.276Z,5.50
2023-03-04T10:49:59.547Z,5.56
2023-03-04T10:52:40.829Z,5.58
2023-03-04T10:55:21.000Z,5.53
2023-03-04T10:58:03.777Z,5.50
2023-03-04T11:00:33.442Z,5.55
2023-03-04T11:03:25.581Z,5.56
2023-03-04T11:06:17.613Z,5.56
2023-03-04T11:08:45.758Z,5.52
2023-03-04T11:11:45.103Z,5.55
2023-03-04T11:14:46.002Z,5.63
2023-03-04T11:17:26.163Z,5.75
2023-03-04T11:20:02.994Z,5.80
2023-03-04T11:22:31.987Z,5.83
2023-03-04T11:25:03.367Z,5.97
2023-03-04T11:27:53.982Z,6.09
2023-03-04T11:30:34.357Z,6.18
2023-03-04T11:33:13.700Z,6.23
2023-03-04T11:36:23.047Z,6.34
2023-03-04T11:38:52.135Z,6.37
2023-03-04T11:41:33.372Z,6.29
2023-03-04T11:44:01.333Z,6.24
2023-03-04T11:46:36.886Z,6.24
2023-03-04T11:49:13.708Z,6.22
2023-03-04T11:51:54.422Z,6.24
2023-03-04T11:54:54.105Z,6.17
2023-03-04T11:57:37.776Z,6.18
2023-03-04T12:00:36.309Z,6.22
2023-03-04T12:03:18.666Z,6.19
2023-03-04T12:06:26.648Z,6.17
2023-03-04T12:09:26.059Z,6.23
2023-03-04T12:12:23.285Z,6.27
2023-03-04T12:15:12.227Z,6.29
2023-03-04T12:18:03.317Z,6.34
2023-03-04T12:21:07.301Z,6.42
2023-03-04T12:23:44.737Z,6.50
2023-03-04T12:26:38.815Z,6.53
2023-03-04T12:29:26.098Z,6.49
2023-03-04T12:32:08.100Z,6.52
2023-03-04T12:34:58.256Z,6.47
2023-03-04T12:37:49.555Z,6.52
2023-03-04T12:40:48.116Z,6.57
2023-03-04T12:43:42.053Z,6.65
2023-03-04T12:46:33.281Z,6.70
2023-03-04T12:49:23.206Z,6.84
2023-03-04T12:52:02.028Z,6.95
2023-03-04T12:54:32.013Z,6.93
2023-03-04T12:57:05.565Z,6.95
2023-03-04T12:59:40.185Z,6.95
2023-03-04T13:02:45.573Z,7.03
2023-03-04T13:05:36.934Z,6.94
2023-03-04T13:08:19.378Z,6.82
2023-03-04T13:10:45.928Z,6.73
2023-03-04T13:13:35.466Z,6.77
2023-03-04T13:16:05.531Z,6.82
2023-03-04T13:18:40.584Z,6.83
2023-03-04T13:21:14.124Z,6.90
2023-03-04T13:23:41.406Z,6.92
2023-03-04T13:26:21.574Z,6.88
2023-03-04T13:29:31.490Z,6.92
2023-03-04T13:32:01.805Z,6.98
2023-03-04T13:34:49.872Z,7.02
2023-03-04T13:37:35.931Z,7.13
2023-03-04T13:40:22.441Z,7.18
2023-03-04T13:42:51.020Z,7.13
2023-03-04T13:45:33.819Z,7.14
2023-03-04T13:48:03.338Z,7.15
2023-03-04T13:50:49.390Z,7.10
2023-03-04T13:53:50.396Z,6.79
2023-03-04T13:56:38.024Z,6.53
2023-03-04T13:59:07.996Z,6.42
2023-03-04T14:01:43.942Z,6.32
2023-03-04T14:04:33.412Z,6.29
2023-03-04T14:07:03.904Z,6.22
2023-03-04T14:09:32.980Z,6.14
2023-03-04T14:12:04.466Z,6.16
2023-03-04T14:14:47.973Z,6.10
2023-03-04T14:17:35.643Z,6.10
2023-03-04T14:20:04.955Z,6.14
2023-03-04T14:22:40.126Z,6.20
2023-03-04T14:25:14.787Z,6.25
2023-03-04T14:27:47.041Z,6.23
2023-03-04T14:33:44.932Z,6.22
2023-03-04T14:36:19.335Z,6.24
2023-03-04T14:38:52.519Z,6.19
2023-03-04T14:41:26.849Z,6.24
2023-03-04T14:44:12.274Z,6.22
2023-03-04T14:47:04.562Z,6.24
2023-03-04T14:49:41.694Z,6.30
2023-03-04T14:52:47.502Z,6.38
2023-03-04T14:55:14.421Z,6.41
2023-03-04T14:57:50.501Z,6.47
2023-03-04T15:00:21.018Z,6.52
2023-03-04T15:02:54.954Z,6.51
2023-03-04T15:05:34.020Z,6.45
2023-03-04T15:08:21.916Z,6.43
2023-03-04T15:11:00.735Z,6.25
2023-03-04T15:13:58.860Z,6.21
2023-03-04T15:16:29.436Z,6.20
2023-03-04T15:19:24.118Z,6.22
2023-03-04T15:21:50.872Z,6.14
2023-03-04T15:24:18.317Z,6.18
2023-03-04T15:26:45.990Z,6.18
2023-03-04T15:29:19.506Z,6.07
2023-03-04T15:36:00.314Z,5.92
2023-03-04T15:38:28.470Z,5.86
2023-03-04T15:40:59.338Z,5.90
2023-03-04T15:43:26.817Z,5.93
2023-03-04T15:45:54.164Z,5.89
2023-03-04T15:48:22.234Z,5.86
2023-03-04T15:51:01.197Z,5.84
2023-03-04T15:53:40.012Z,5.85
2023-03-04T15:56:17.190Z,5.76
2023-03-04T15:59:00.640Z,5.71
2023-03-04T16:01:40.210Z,5.72
2023-03-04T16:04:17.244Z,5.76
2023-03-04T16:06:52.943Z,5.75
2023-03-04T16:09:23.377Z,5.74
2023-03-04T16:11:59.101Z,5.74
2023-03-04T16:14:30.347Z,5.74
2023-03-04T16:17:03.826Z,5.72
2023-03-04T16:19:31.001Z,5.74
2023-03-04T16:22:05.577Z,5.69
2023-03-04T16:25:00.252Z,5.57
2023-03-04T16:27:30.181Z,5.50
2023-03-04T16:30:27.091Z,5.41
2023-03-04T16:33:01.192Z,5.36
2023-03-04T16:35:30.024Z,5.32
2023-03-04T16:38:34.541Z,5.29
2023-03-04T16:41:14.786Z,5.30
2023-03-04T16:43:48.513Z,5.22
2023-03-04T16:46:20.332Z,5.18
2023-03-04T16:48:57.843Z,5.09
2023-03-04T16:51:31.707Z,5.01
2023-03-04T16:54:03.437Z,4.99
2023-03-04T16:56:35.707Z,4.90
2023-03-04T16:59:05.923Z,4.84
2023-03-04T17:01:37.664Z,4.75
2023-03-04T17:04:13.449Z,4.69
2023-03-04T17:06:44.192Z,4.62
2023-03-04T17:09:11.801Z,4.55
2023-03-04T17:11:41.248Z,4.49
2023-03-04T17:14:20.024Z,4.39
2023-03-04T17:16:48.945Z,4.37
2023-03-04T17:19:17.234Z,4.35
2023-03-04T17:21:48.185Z,4.22
2023-03-04T17:24:18.214Z,4.24
2023-03-04T17:26:45.070Z,4.24
2023-03-04T17:29:19.534Z,4.22
2023-03-04T17:31:47.868Z,4.22
2023-03-04T17:34:14.754Z,4.21
2023-03-04T17:36:42.980Z,4.24
2023-03-04T17:39:14.959Z,4.24
2023-03-04T17:42:03.958Z,4.21
2023-03-04T17:44:31.141Z,4.21
2023-03-04T17:47:13.510Z,4.19
2023-03-04T17:49:40.946Z,4.05
2023-03-04T17:52:11.761Z,4.03
2023-03-04T17:54:44.619Z,4.05
2023-03-04T18:00:03.615Z,4.01
2023-03-04T18:02:41.601Z,3.97
2023-03-04T18:05:12.371Z,3.92
2023-03-04T18:07:41.854Z,3.94
2023-03-04T18:10:16.233Z,3.93
2023-03-04T18:12:47.078Z,3.93
2023-03-04T18:15:20.005Z,3.94
2023-03-04T18:17:50.618Z,3.92
2023-03-04T18:20:20.574Z,3.90
2023-03-04T18:22:52.631Z,3.88
2023-03-04T18:25:27.814Z,3.94
2023-03-04T18:28:06.256Z,3.90
2023-03-04T18:30:46.937Z,3.89
2023-03-04T18:33:18.359Z,3.80
2023-03-04T18:35:53.631Z,3.85
2023-03-04T18:38:21.538Z,3.85
2023-03-04T18:40:59.358Z,3.83
2023-03-04T18:43:33.177Z,3.82
2023-03-04T18:46:19.489Z,3.83
2023-03-04T18:48:56.654Z,3.80
2023-03-04T18:51:27.374Z,3.81
2023-03-04T18:53:57.442Z,3.81
2023-03-04T18:56:44.158Z,3.81
2023-03-04T18:59:41.871Z,3.76
2023-03-04T19:02:37.486Z,3.83
2023-03-04T19:05:12.352Z,3.77
2023-03-04T19:07:49.458Z,3.76
2023-03-04T19:10:25.875Z,3.77
2023-03-04T19:13:01.105Z,3.76
2023-03-04T19:15:33.732Z,3.71
2023-03-04T19:18:03.776Z,3.72
2023-03-04T19:20:57.748Z,3.71
2023-03-04T19:23:40.438Z,3.70
2023-03-04T19:26:15.898Z,3.71
2023-03-04T19:28:45.793Z,3.73
2023-03-04T19:31:20.668Z,3.73
2023-03-04T19:33:51.533Z,3.73
2023-03-04T19:36:21.478Z,3.72
2023-03-04T19:38:51.608Z,3.70
2023-03-04T19:41:28.045Z,3.72
2023-03-04T19:44:00.741Z,3.70
2023-03-04T19:46:32.707Z,3.68
2023-03-04T19:49:05.644Z,3.67
2023-03-04T19:51:41.520Z,3.68
2023-03-04T19:54:10.067Z,3.63
2023-03-04T19:56:52.277Z,3.54
2023-03-04T19:59:25.876Z,3.55
2023-03-04T20:02:01.771Z,3.48
2023-03-04T20:04:34.750Z,3.45
2023-03-04T20:07:04.489Z,3.45
2023-03-04T20:09:33.459Z,3.37
2023-03-04T20:12:05.377Z,3.33
2023-03-04T20:14:35.117Z,3.35
2023-03-04T20:17:07.420Z,3.32
2023-03-04T20:19:56.274Z,3.30
2023-03-04T20:22:30.645Z,3.31
2023-03-04T20:25:00.538Z,3.32
2023-03-04T20:27:35.789Z,3.35
2023-03-04T20:30:05.621Z,3.34
2023-03-04T20:32:37.438Z,3.36
2023-03-04T20:35:15.196Z,3.34
2023-03-04T20:37:54.361Z,3.35
2023-03-04T20:40:23.914Z,3.36
2023-03-04T20:43:03.813Z,3.37
2023-03-04T20:45:43.735Z,3.37
2023-03-04T20:48:12.986Z,3.39
2023-03-04T20:50:42.956Z,3.42
2023-03-04T20:53:09.576Z,3.42
2023-03-04T20:55:46.122Z,3.44
2023-03-04T20:58:15.902Z,3.42
2023-03-04T21:00:47.927Z,3.41
2023-03-04T21:06:15.438Z,3.36
2023-03-04T21:08:46.485Z,3.34
2023-03-04T21:11:17.638Z,3.32
2023-03-04T21:13:56.293Z,3.30
2023-03-04T21:16:57.290Z,3.34
2023-03-04T21:19:35.144Z,3.36
2023-03-04T21:22:06.388Z,3.36
2023-03-04T21:24:37.536Z,3.31
2023-03-04T21:27:06.566Z,3.29
2023-03-04T21:29:33.848Z,3.22
